West Point, Nebraska
Current Conditions -  °F | °C
As of 6:28 AM on Monday 24 Nov 2014 (Local Time) from KTQE Reporting Station
Overcast Overcast  
Wind Chill: 12°   Ceiling: 3000
Heat Index: 27°   Visibility: 10mi
Dew Point: 16°   Wind: 25mph
Humidity: 63%   Direction: 310°NW
Pressure: 29.62"   Gusts: 36mph
Location:  41.84°N, 96.71°W
Report Text: KTQE 241228Z AUTO 31022G31KT 10SM OVC030 M03/M09 A2962 RMK AO2 PK WND 32034/1218 T10281089
Loading
Personal Weather Stations






























Interactive Weather Map New forecast layout! Learn more

10-Day Weather Forecast

Advertisements
Track Severe Weather on mobile